Time;durP1;ratioP1;P1;durP2;ratioP2;P2;SDS_P1;SDS_P2;PMS_P1;PMS_P2;Temp;Humidity;BMP_temperature;BMP_pressure;BME280_temperature;BME280_humidity;BME280_pressure;Samples;Min_cycle;Max_cycle;Signal;HPM_P1;HPM_P2
2023/08/05 00:01:07;;;;;;;2.55;1.30;;;;;;;-145.00;61.57;72928.44;5028915;28;20050;-75
2023/08/05 00:03:35;;;;;;;2.70;1.58;;;;;;;-145.00;61.68;72928.44;5030311;28;20051;-76
2023/08/05 00:06:02;;;;;;;1.75;1.30;;;;;;;-145.00;61.74;72926.38;5028973;28;20045;-76
2023/08/05 00:08:29;;;;;;;3.15;1.23;;;;;;;-145.00;61.90;72928.44;5023903;28;20405;-76
2023/08/05 00:10:57;;;;;;;5.25;1.55;;;;;;;-145.00;61.66;72930.53;5029169;28;20041;-77
2023/08/05 00:13:23;;;;;;;2.60;1.30;;;;;;;-145.00;61.78;72930.53;5025570;28;20042;-76
2023/08/05 00:15:51;;;;;;;2.28;1.40;;;;;;;-145.00;61.92;72930.53;5027321;28;20068;-75
2023/08/05 00:18:17;;;;;;;3.05;1.40;;;;;;;-145.00;61.78;72922.22;5030348;28;20137;-76
2023/08/05 00:20:44;;;;;;;2.47;1.40;;;;;;;-145.00;61.73;72920.13;5030804;28;20049;-76
2023/08/05 00:23:10;;;;;;;6.57;1.70;;;;;;;-145.00;62.00;72930.53;5026068;28;20053;-76
2023/08/05 00:25:38;;;;;;;5.75;1.10;;;;;;;-145.00;61.95;72926.38;5030574;28;20055;-76
2023/08/05 00:28:06;;;;;;;3.58;1.83;;;;;;;-145.00;61.77;72926.38;5037387;28;20249;-76
2023/08/05 00:30:35;;;;;;;1.45;1.20;;;;;;;-145.00;61.97;72934.69;5047627;28;20049;-76
2023/08/05 00:33:01;;;;;;;2.40;1.30;;;;;;;-145.00;62.00;72934.69;5039203;28;20046;-76
2023/08/05 00:35:28;;;;;;;3.40;1.35;;;;;;;-145.00;62.31;72934.69;5043194;28;20124;-76
2023/08/05 00:37:54;;;;;;;2.20;1.50;;;;;;;-145.00;62.33;72932.63;5043912;28;20309;-75
2023/08/05 00:40:21;;;;;;;2.00;1.35;;;;;;;-145.00;62.39;72930.53;5042297;28;20048;-76
2023/08/05 00:42:47;;;;;;;3.53;1.70;;;;;;;-145.00;62.66;72936.78;5032769;28;20045;-75
2023/08/05 00:45:15;;;;;;;2.83;1.55;;;;;;;-145.00;62.71;72943.03;5041686;28;20052;-74
2023/08/05 00:47:42;;;;;;;3.55;1.50;;;;;;;-145.00;62.69;72940.94;5036262;28;20501;-76
2023/08/05 00:50:11;;;;;;;4.32;1.70;;;;;;;-145.00;63.09;72951.34;5030884;28;20052;-74
2023/08/05 00:52:38;;;;;;;2.65;1.83;;;;;;;-145.00;63.39;72963.84;5031072;28;20052;-76
2023/08/05 00:55:06;;;;;;;3.05;1.60;;;;;;;-145.00;63.64;72963.84;5031217;28;20132;-76
2023/08/05 00:57:33;;;;;;;3.58;1.67;;;;;;;-145.00;63.79;72963.84;5035840;28;20071;-75
2023/08/05 00:59:59;;;;;;;3.42;1.70;;;;;;;-145.00;63.61;72949.28;5034925;28;20465;-75
2023/08/05 01:02:27;;;;;;;3.70;1.30;;;;;;;-145.00;63.83;72940.94;5041855;28;20052;-76
2023/08/05 01:04:54;;;;;;;2.85;1.42;;;;;;;-145.00;63.82;72943.03;5034396;28;20045;-76
2023/08/05 01:07:23;;;;;;;2.53;1.48;;;;;;;-145.00;64.09;72951.34;5033507;28;20069;-75
2023/08/05 01:09:50;;;;;;;4.07;1.50;;;;;;;-145.00;64.04;72945.09;5033242;28;20045;-75
2023/08/05 01:12:16;;;;;;;2.70;1.30;;;;;;;-145.00;64.04;72940.94;5033056;28;20489;-76
2023/08/05 01:14:43;;;;;;;2.20;1.50;;;;;;;-145.00;64.08;72943.03;5041067;28;20049;-76
2023/08/05 01:17:11;;;;;;;3.63;1.70;;;;;;;-145.00;64.05;72936.78;5036381;28;20045;-75
2023/08/05 01:19:46;;;;;;;3.13;1.27;;;;;;;-145.00;64.31;72940.94;5032956;28;20050;-76
2023/08/05 01:22:20;;;;;;;3.40;1.60;;;;;;;-145.00;64.35;72934.69;5013560;28;20128;-76
2023/08/05 01:24:58;;;;;;;3.88;1.60;;;;;;;-145.00;64.55;72932.63;5034974;28;20054;-76
2023/08/05 01:27:43;;;;;;;3.03;1.60;;;;;;;-145.00;64.92;72943.03;5024637;28;20108;-75
2023/08/05 01:30:17;;;;;;;4.43;1.70;;;;;;;-145.00;65.18;72943.03;5023015;28;20045;-75
2023/08/05 01:32:46;;;;;;;2.25;1.42;;;;;;;-145.00;65.28;72945.09;5014494;28;20500;-76
2023/08/05 01:35:14;;;;;;;2.65;1.58;;;;;;;-145.00;65.51;72951.34;5026579;28;20050;-76
2023/08/05 01:37:44;;;;;;;3.90;1.60;;;;;;;-145.00;65.43;72936.78;5035589;28;20406;-75
2023/08/05 01:40:14;;;;;;;3.50;1.67;;;;;;;-145.00;65.60;72938.88;5033190;28;20048;-76
2023/08/05 01:42:42;;;;;;;3.75;1.80;;;;;;;-145.00;65.65;72943.03;5034748;28;20056;-75
2023/08/05 01:45:10;;;;;;;2.72;1.60;;;;;;;-145.00;66.15;72943.03;5034086;28;20042;-78
2023/08/05 01:47:44;;;;;;;2.80;1.52;;;;;;;-145.00;65.97;72930.53;5042660;28;20049;-75
2023/08/05 01:50:23;;;;;;;4.05;1.58;;;;;;;-145.00;66.05;72938.88;5013039;28;20105;-78
2023/08/05 01:53:01;;;;;;;4.13;1.70;;;;;;;-145.00;66.16;72945.09;5025790;28;20042;-76
2023/08/05 01:55:30;;;;;;;3.45;1.60;;;;;;;-145.00;66.26;72943.03;5024153;28;20680;-77
2023/08/05 01:58:01;;;;;;;5.65;1.95;;;;;;;-145.00;66.23;72938.88;5026853;28;20046;-76
2023/08/05 02:00:49;;;;;;;2.35;1.50;;;;;;;-145.00;66.31;72934.69;5025671;28;20045;-76
2023/08/05 02:03:16;;;;;;;5.65;1.50;;;;;;;-145.00;66.41;72943.03;5031804;28;20080;-75
2023/08/05 02:05:42;;;;;;;2.50;1.40;;;;;;;-145.00;66.55;72943.03;5033155;28;20057;-75
2023/08/05 02:08:09;;;;;;;2.45;1.38;;;;;;;-145.00;67.02;72951.34;5031223;28;20497;-75
2023/08/05 02:10:37;;;;;;;1.92;1.40;;;;;;;-145.00;66.83;72943.03;5025571;28;20497;-77
2023/08/05 02:13:07;;;;;;;2.13;1.48;;;;;;;-145.00;66.83;72947.19;5023848;28;20052;-75
2023/08/05 02:15:39;;;;;;;4.03;1.65;;;;;;;-145.00;66.98;72943.03;5033295;28;20044;-76
2023/08/05 02:18:13;;;;;;;2.80;1.50;;;;;;;-145.00;67.23;72936.78;5040771;28;20113;-75
2023/08/05 02:20:40;;;;;;;2.65;1.40;;;;;;;-145.00;67.45;72936.78;5026737;28;20049;-75
2023/08/05 02:23:07;;;;;;;2.58;1.50;;;;;;;-145.00;67.66;72938.88;5031252;28;20045;-75
2023/08/05 02:25:33;;;;;;;3.15;1.63;;;;;;;-145.00;67.76;72938.88;5036901;28;20045;-75
2023/08/05 02:28:02;;;;;;;2.13;1.40;;;;;;;-145.00;67.88;72938.88;5019738;28;20045;-74
2023/08/05 02:30:30;;;;;;;3.40;1.90;;;;;;;-145.00;67.59;72943.03;5031477;28;20037;-75
2023/08/05 02:32:57;;;;;;;3.15;1.30;;;;;;;-145.00;67.50;72949.28;5032198;28;20501;-75
2023/08/05 02:35:23;;;;;;;2.20;1.50;;;;;;;-145.00;67.33;72953.44;5029055;28;20056;-73
2023/08/05 02:37:50;;;;;;;2.97;1.60;;;;;;;-145.00;66.99;72947.19;5027561;28;20041;-77
2023/08/05 02:40:16;;;;;;;2.50;1.52;;;;;;;-145.00;67.24;72957.59;5040853;28;20045;-75
2023/08/05 02:42:44;;;;;;;2.05;1.30;;;;;;;-145.00;66.84;72959.69;5033084;28;20052;-75
2023/08/05 02:45:11;;;;;;;4.60;1.90;;;;;;;-145.00;66.72;72955.50;5032581;28;20099;-75
2023/08/05 02:47:39;;;;;;;4.50;1.67;;;;;;;-145.00;66.78;72968.00;5033293;28;20045;-75
2023/08/05 02:50:09;;;;;;;2.83;1.50;;;;;;;-145.00;67.14;72978.41;5032702;28;20050;-75
2023/08/05 02:52:36;;;;;;;2.17;1.55;;;;;;;-145.00;66.46;72980.50;5033207;28;20048;-76
2023/08/05 02:55:02;;;;;;;2.20;1.42;;;;;;;-145.00;66.55;72988.81;5024420;28;20042;-75
2023/08/05 02:57:31;;;;;;;3.55;1.35;;;;;;;-145.00;66.49;72988.81;5033047;28;20049;-77
2023/08/05 02:59:58;;;;;;;2.33;1.50;;;;;;;-145.00;66.66;72988.81;5042355;28;20042;-75
2023/08/05 03:02:24;;;;;;;2.45;1.83;;;;;;;-145.00;66.40;72988.81;5032517;28;20047;-75
2023/08/05 03:04:52;;;;;;;2.00;1.40;;;;;;;-145.00;66.28;72988.81;5032607;28;20416;-77
2023/08/05 03:07:19;;;;;;;1.98;1.40;;;;;;;-145.00;66.23;72984.66;5032217;28;20570;-75
2023/08/05 03:09:46;;;;;;;1.90;1.30;;;;;;;-145.00;66.35;72976.34;5032771;28;20057;-75
2023/08/05 03:12:12;;;;;;;1.50;1.35;;;;;;;-145.00;65.92;72972.16;5031564;28;20055;-76
2023/08/05 03:14:39;;;;;;;5.15;1.80;;;;;;;-145.00;66.13;72972.16;5032628;28;20049;-75
2023/08/05 03:17:05;;;;;;;2.55;1.40;;;;;;;-145.00;66.10;72980.50;5032027;28;20053;-75
2023/08/05 03:19:32;;;;;;;2.10;1.58;;;;;;;-145.00;66.40;72997.16;5029044;28;20049;-75
2023/08/05 03:22:00;;;;;;;2.90;1.38;;;;;;;-145.00;66.72;73009.66;5034730;28;20501;-75
2023/08/05 03:24:27;;;;;;;2.42;1.63;;;;;;;-145.00;66.78;73022.13;5030930;28;20041;-75
2023/08/05 03:26:53;;;;;;;1.58;1.20;;;;;;;-145.00;66.71;73026.31;5031174;28;20041;-75
2023/08/05 03:29:20;;;;;;;3.17;1.40;;;;;;;-145.00;66.81;73036.72;5032526;28;20048;-75
2023/08/05 03:31:46;;;;;;;2.35;1.30;;;;;;;-145.00;66.83;73030.47;5031653;28;20052;-75
2023/08/05 03:34:13;;;;;;;2.17;1.50;;;;;;;-145.00;67.22;73047.13;5037444;28;20054;-75
2023/08/05 03:36:39;;;;;;;5.00;1.30;;;;;;;-145.00;67.66;73049.19;5031453;28;20050;-75
2023/08/05 03:39:07;;;;;;;2.63;1.40;;;;;;;-145.00;67.64;73055.44;5030292;28;20046;-75
2023/08/05 03:41:33;;;;;;;2.20;1.10;;;;;;;-145.00;68.21;73057.53;5027545;28;20046;-75
2023/08/05 03:44:01;;;;;;;1.73;1.10;;;;;;;-145.00;68.58;73065.84;5025844;28;20051;-75
2023/08/05 03:46:27;;;;;;;3.30;1.35;;;;;;;-145.00;68.74;73072.09;5029885;28;20114;-74
2023/08/05 03:48:54;;;;;;;2.75;1.52;;;;;;;-145.00;69.12;73076.25;5030566;28;20052;-75
2023/08/05 03:51:20;;;;;;;1.90;1.38;;;;;;;-145.00;69.34;73082.50;5029894;28;20507;-75
2023/08/05 03:53:47;;;;;;;2.25;1.50;;;;;;;-145.00;69.96;73080.44;5038125;28;20057;-75
2023/08/05 03:56:18;;;;;;;2.20;1.48;;;;;;;-145.00;70.15;73092.91;5030137;28;20042;-75
2023/08/05 03:58:46;;;;;;;2.25;1.17;;;;;;;-145.00;70.39;73101.25;5030487;28;20053;-74
2023/08/05 04:01:16;;;;;;;1.35;1.20;;;;;;;-145.00;70.69;73105.41;5029741;28;20042;-74
2023/08/05 04:03:43;;;;;;;2.28;1.35;;;;;;;-145.00;71.04;73109.56;5030004;28;20041;-75
2023/08/05 04:06:11;;;;;;;2.30;1.20;;;;;;;-145.00;70.81;73109.56;5029164;28;20045;-74
2023/08/05 04:08:38;;;;;;;2.50;1.35;;;;;;;-145.00;71.34;73113.75;5033562;28;20059;-75
2023/08/05 04:11:06;;;;;;;2.10;1.20;;;;;;;-145.00;71.69;73122.06;5028281;28;20046;-75
2023/08/05 04:13:34;;;;;;;2.55;1.40;;;;;;;-145.00;72.15;73142.88;5029702;28;20537;-75
2023/08/05 04:16:03;;;;;;;3.63;1.95;;;;;;;-145.00;72.36;73155.38;5030351;28;20103;-75
2023/08/05 04:18:30;;;;;;;1.65;1.30;;;;;;;-145.00;72.99;73167.88;5027327;28;20056;-75
2023/08/05 04:20:57;;;;;;;2.75;1.55;;;;;;;-145.00;73.22;73159.53;5026640;28;20045;-74
2023/08/05 04:23:25;;;;;;;1.63;1.35;;;;;;;-145.00;73.47;73163.72;5029190;28;20137;-75
2023/08/05 04:25:51;;;;;;;1.95;1.30;;;;;;;-145.00;73.67;73165.78;5032005;28;20045;-75
2023/08/05 04:28:18;;;;;;;3.70;1.60;;;;;;;-145.00;74.10;73163.72;5029290;28;20041;-74
2023/08/05 04:30:48;;;;;;;2.75;1.70;;;;;;;-145.00;74.30;73153.28;5030862;28;20043;-75
2023/08/05 04:33:14;;;;;;;2.72;1.63;;;;;;;-145.00;74.50;73149.13;5033998;28;20099;-75
2023/08/05 04:35:45;;;;;;;2.70;1.88;;;;;;;-145.00;74.68;73149.13;5037997;28;20048;-75
2023/08/05 04:38:12;;;;;;;4.35;2.10;;;;;;;-145.00;74.47;73147.06;5032037;28;20047;-76
2023/08/05 04:40:38;;;;;;;3.25;1.90;;;;;;;-145.00;74.99;73147.06;5034646;28;20041;-77
2023/08/05 04:43:05;;;;;;;5.18;2.20;;;;;;;-145.00;75.22;73151.22;5033572;28;20045;-75
2023/08/05 04:45:31;;;;;;;3.13;2.17;;;;;;;-145.00;75.22;73151.22;5035429;28;20045;-75
2023/08/05 04:47:59;;;;;;;3.65;2.20;;;;;;;-145.00;75.29;73159.53;5034384;28;20489;-75
2023/08/05 04:50:26;;;;;;;4.05;2.03;;;;;;;-145.00;75.69;73155.38;5033895;28;20047;-78
2023/08/05 04:52:52;;;;;;;2.90;2.17;;;;;;;-145.00;76.17;73149.13;5034798;28;20042;-74
2023/08/05 04:55:19;;;;;;;3.25;1.90;;;;;;;-145.00;75.98;73140.81;5029036;28;20042;-75
2023/08/05 04:57:53;;;;;;;4.40;2.47;;;;;;;-145.00;75.84;73142.88;5034888;28;20049;-75
2023/08/05 05:00:19;;;;;;;3.00;2.45;;;;;;;-145.00;75.71;73147.06;5033944;28;20049;-76
2023/08/05 05:02:46;;;;;;;4.50;2.30;;;;;;;-145.00;75.91;73138.72;5034316;28;20045;-75
2023/08/05 05:05:14;;;;;;;3.08;2.38;;;;;;;-145.00;76.31;73147.06;5033787;28;20048;-75
2023/08/05 05:07:40;;;;;;;4.97;2.95;;;;;;;-145.00;76.57;73147.06;5034206;28;20049;-75
2023/08/05 05:10:07;;;;;;;5.40;3.28;;;;;;;-145.00;76.58;73151.22;5038213;28;20049;-73
2023/08/05 05:12:34;;;;;;;5.28;3.33;;;;;;;-145.00;76.96;73147.06;5030151;28;20053;-73
2023/08/05 05:15:01;;;;;;;3.80;3.05;;;;;;;-145.00;76.88;73142.88;5024422;28;20056;-72
2023/08/05 05:17:34;;;;;;;5.30;3.47;;;;;;;-145.00;76.63;73149.13;5030391;28;20508;-73
2023/08/05 05:20:00;;;;;;;6.88;3.88;;;;;;;-145.00;76.84;73136.63;5031251;28;20060;-74
2023/08/05 05:22:28;;;;;;;5.13;4.05;;;;;;;-145.00;76.69;73142.88;5034424;28;20056;-73
2023/08/05 05:24:55;;;;;;;5.95;4.60;;;;;;;-145.00;77.12;73155.38;5031725;28;20049;-73
2023/08/05 05:27:21;;;;;;;7.85;5.13;;;;;;;-145.00;76.87;73144.97;5030121;28;20156;-73
2023/08/05 05:29:48;;;;;;;7.43;5.88;;;;;;;-145.00;76.54;73147.06;5030976;28;20643;-75
2023/08/05 05:32:14;;;;;;;7.05;6.13;;;;;;;-145.00;76.71;73151.22;5029170;28;20049;-72
2023/08/05 05:34:41;;;;;;;7.72;6.13;;;;;;;-145.00;76.91;73151.22;5032030;28;20517;-73
2023/08/05 05:37:07;;;;;;;8.30;6.90;;;;;;;-145.00;76.38;73151.22;5031037;28;20558;-73
2023/08/05 05:39:35;;;;;;;8.80;7.00;;;;;;;-145.00;76.98;73161.63;5030946;28;20049;-74
2023/08/05 05:42:02;;;;;;;11.20;7.93;;;;;;;-145.00;77.44;73163.72;5029366;28;20125;-74
2023/08/05 05:44:28;;;;;;;10.40;8.35;;;;;;;-145.00;77.87;73167.88;5030323;28;20142;-73
2023/08/05 05:46:55;;;;;;;10.82;8.25;;;;;;;-145.00;77.94;73155.38;5030160;28;20080;-73
2023/08/05 05:49:21;;;;;;;8.85;7.55;;;;;;;-145.00;77.94;73138.72;5029440;28;20500;-73
2023/08/05 05:51:48;;;;;;;10.82;9.38;;;;;;;-145.00;77.96;73130.41;5021727;28;20463;-73
2023/08/05 05:54:15;;;;;;;10.48;9.05;;;;;;;-145.00;77.72;73126.22;5028732;28;20136;-72
2023/08/05 05:56:43;;;;;;;10.80;9.70;;;;;;;-145.00;77.45;73128.31;5029638;28;20436;-73
2023/08/05 05:59:10;;;;;;;13.25;10.45;;;;;;;-145.00;77.63;73130.41;5029030;28;20531;-73
2023/08/05 06:01:36;;;;;;;12.35;10.88;;;;;;;-145.00;77.55;73138.72;5029161;28;20400;-72
2023/08/05 06:04:07;;;;;;;14.75;11.50;;;;;;;-145.00;76.71;73134.56;5029082;28;20069;-74
2023/08/05 06:06:34;;;;;;;12.80;10.40;;;;;;;-145.00;76.67;73134.56;5030035;28;20045;-73
2023/08/05 06:09:02;;;;;;;14.75;10.90;;;;;;;-145.00;76.80;73134.56;5030295;28;20099;-73
2023/08/05 06:11:29;;;;;;;13.38;11.27;;;;;;;-145.00;77.16;73132.47;5022242;28;20099;-75
2023/08/05 06:13:57;;;;;;;12.60;10.70;;;;;;;-145.00;77.26;73138.72;5022494;28;20080;-73
2023/08/05 06:16:23;;;;;;;14.13;10.88;;;;;;;-145.00;77.04;73134.56;5028929;28;20049;-75
2023/08/05 06:18:50;;;;;;;15.02;11.02;;;;;;;-145.00;77.04;73119.97;5022247;28;20057;-76
2023/08/05 06:21:17;;;;;;;14.75;11.10;;;;;;;-145.00;76.92;73105.41;5029250;28;20052;-76
2023/08/05 06:23:43;;;;;;;14.00;11.63;;;;;;;-145.00;76.46;73109.56;5033330;28;20054;-75
2023/08/05 06:26:09;;;;;;;13.32;10.90;;;;;;;-145.00;76.70;73115.81;5030761;28;20050;-75
2023/08/05 06:28:36;;;;;;;14.45;10.52;;;;;;;-145.00;76.77;73105.41;5042133;28;20052;-74
2023/08/05 06:31:04;;;;;;;11.52;10.32;;;;;;;-145.00;76.84;73101.25;5033847;28;20046;-75
2023/08/05 06:33:30;;;;;;;13.98;12.15;;;;;;;-145.00;75.37;73076.25;5026672;28;20069;-75
2023/08/05 06:35:57;;;;;;;14.57;12.05;;;;;;;-145.00;75.72;73090.84;5034843;28;20037;-74
2023/08/05 06:38:24;;;;;;;15.57;11.98;;;;;;;-145.00;75.56;73086.69;5032549;28;20038;-76
2023/08/05 06:40:52;;;;;;;16.20;11.93;;;;;;;-145.00;74.81;73080.44;5033755;28;20041;-75
2023/08/05 06:43:18;;;;;;;14.15;11.20;;;;;;;-145.00;74.20;73076.25;5031366;28;20049;-75
2023/08/05 06:45:46;;;;;;;13.55;11.02;;;;;;;-145.00;74.50;73080.44;5036896;28;20053;-74
2023/08/05 06:48:14;;;;;;;14.23;11.73;;;;;;;-145.00;74.32;73084.59;5024461;28;20051;-75
2023/08/05 06:50:41;;;;;;;13.77;11.18;;;;;;;-145.00;74.63;73076.25;5029348;28;20049;-75
2023/08/05 06:53:07;;;;;;;14.10;11.63;;;;;;;-145.00;74.85;73067.94;5033345;28;20045;-74
2023/08/05 06:55:34;;;;;;;12.80;10.85;;;;;;;-145.00;74.62;73059.59;5039155;28;20057;-75
2023/08/05 06:58:00;;;;;;;13.80;10.88;;;;;;;-145.00;73.72;73063.78;5031896;28;20116;-75
2023/08/05 07:00:27;;;;;;;13.88;10.70;;;;;;;-145.00;73.88;73057.53;5034230;28;20049;-74
2023/08/05 07:02:54;;;;;;;13.13;11.25;;;;;;;-145.00;73.53;73059.59;5020307;28;20501;-73
2023/08/05 07:05:21;;;;;;;12.43;10.50;;;;;;;-145.00;74.30;73072.09;5027456;28;20045;-74
2023/08/05 07:07:49;;;;;;;14.50;11.00;;;;;;;-145.00;73.99;73059.59;5027835;28;20046;-74
2023/08/05 07:10:15;;;;;;;12.93;11.13;;;;;;;-145.00;73.44;73063.78;5023988;28;20415;-74
2023/08/05 07:12:42;;;;;;;12.57;10.98;;;;;;;-145.00;73.50;73059.59;5023604;28;20099;-74
2023/08/05 07:15:09;;;;;;;12.35;10.43;;;;;;;-145.00;73.95;73070.03;5027581;28;20645;-74
2023/08/05 07:17:36;;;;;;;12.18;10.55;;;;;;;-145.00;73.92;73067.94;5034558;28;20049;-74
2023/08/05 07:20:04;;;;;;;13.35;11.95;;;;;;;-145.00;73.42;73072.09;5027401;28;20579;-74
2023/08/05 07:24:49;;;;;;;13.43;11.48;;;;;;;-145.00;74.15;73076.25;5095930;27;20405;-76
2023/08/05 07:27:15;;;;;;;14.32;12.07;;;;;;;-145.00;74.23;73078.34;5080405;28;20419;-76
2023/08/05 07:29:43;;;;;;;15.77;12.05;;;;;;;-145.00;74.59;73070.03;5085953;28;20059;-76
2023/08/05 07:32:10;;;;;;;12.93;11.25;;;;;;;-145.00;74.74;73076.25;5084768;28;20410;-77
2023/08/05 07:34:36;;;;;;;14.88;12.18;;;;;;;-145.00;74.68;73072.09;5086775;28;20059;-77
2023/08/05 07:37:03;;;;;;;13.65;11.07;;;;;;;-145.00;74.29;73067.94;5081803;28;20044;-76
2023/08/05 07:39:33;;;;;;;15.70;11.40;;;;;;;-145.00;74.84;73076.25;5085698;28;20048;-75
2023/08/05 07:42:05;;;;;;;23.27;13.10;;;;;;;-145.00;75.38;73076.25;5076882;28;20066;-76
2023/08/05 07:44:32;;;;;;;16.13;12.00;;;;;;;-145.00;75.48;73076.25;5085060;28;20044;-75
2023/08/05 07:46:59;;;;;;;16.02;12.38;;;;;;;-145.00;75.65;73076.25;5067933;28;20056;-74
2023/08/05 07:49:26;;;;;;;27.55;12.40;;;;;;;-145.00;75.48;73063.78;5084018;28;20055;-74
2023/08/05 07:51:53;;;;;;;15.70;12.35;;;;;;;-145.00;75.66;73084.59;5084374;28;20068;-75
2023/08/05 07:54:20;;;;;;;13.45;11.57;;;;;;;-145.00;76.45;73097.09;5087498;28;20055;-74
2023/08/05 07:56:48;;;;;;;13.85;11.95;;;;;;;-145.00;75.91;73090.84;5087791;28;20109;-74
2023/08/05 07:59:18;;;;;;;19.77;12.73;;;;;;;-145.00;76.41;73095.00;5083355;28;20044;-73
2023/08/05 08:01:45;;;;;;;21.90;13.65;;;;;;;-145.00;77.05;73086.69;5085636;28;20102;-74
2023/08/05 08:04:15;;;;;;;17.50;11.80;;;;;;;-145.00;76.79;73105.41;5086897;28;20044;-74
2023/08/05 08:06:45;;;;;;;19.17;12.68;;;;;;;-145.00;77.01;73113.75;5088044;28;20063;-75
2023/08/05 08:09:14;;;;;;;21.60;13.70;;;;;;;-145.00;77.82;73109.56;5089778;28;20136;-77
2023/08/05 08:11:41;;;;;;;105.53;16.58;;;;;;;-145.00;77.84;73092.91;5091059;28;20060;-74
2023/08/05 08:14:08;;;;;;;16.98;13.18;;;;;;;-145.00;77.15;73097.09;5092118;28;20066;-75
2023/08/05 08:16:35;;;;;;;16.83;12.70;;;;;;;-145.00;77.44;73105.41;5091863;28;20040;-75
2023/08/05 08:19:04;;;;;;;17.17;13.00;;;;;;;-145.00;77.95;73113.75;5083623;28;20048;-75
2023/08/05 08:21:30;;;;;;;16.05;12.35;;;;;;;-145.00;77.45;73105.41;5087511;28;20070;-80
2023/08/05 08:23:57;;;;;;;14.88;12.50;;;;;;;-145.00;77.93;73109.56;5085810;28;20048;-74
2023/08/05 08:26:26;;;;;;;28.42;15.18;;;;;;;-145.00;78.02;73092.91;5084344;28;20047;-75
2023/08/05 08:28:53;;;;;;;16.45;13.07;;;;;;;-145.00;77.53;73084.59;5083630;28;20048;-76
2023/08/05 08:31:19;;;;;;;15.30;12.13;;;;;;;-145.00;78.14;73109.56;5083180;28;20055;-75
2023/08/05 08:33:50;;;;;;;23.83;13.80;;;;;;;-145.00;77.94;73086.69;5084058;28;20049;-75
2023/08/05 08:36:17;;;;;;;52.45;15.15;;;;;;;-145.00;77.98;73088.75;5063269;28;20048;-75
2023/08/05 08:38:44;;;;;;;14.60;12.82;;;;;;;-145.00;78.48;73092.91;5070606;28;20055;-75
2023/08/05 08:41:10;;;;;;;75.25;15.85;;;;;;;-145.00;79.23;73099.16;5069840;28;20064;-75
2023/08/05 08:43:37;;;;;;;67.78;15.02;;;;;;;-145.00;80.41;73107.50;5070045;28;20432;-74
2023/08/05 08:46:07;;;;;;;17.85;14.07;;;;;;;-145.00;80.80;73105.41;5061958;28;20051;-74
2023/08/05 08:48:36;;;;;;;43.60;14.98;;;;;;;-145.00;81.22;73109.56;5070896;28;20435;-75
2023/08/05 08:51:04;;;;;;;94.00;16.70;;;;;;;-145.00;80.89;73119.97;5071757;28;20044;-75
2023/08/05 08:53:32;;;;;;;56.38;14.60;;;;;;;-145.00;80.69;73122.06;5070633;28;20044;-75
2023/08/05 08:55:59;;;;;;;59.90;14.55;;;;;;;-145.00;80.65;73117.91;5069434;28;20052;-74
2023/08/05 08:58:26;;;;;;;59.80;15.85;;;;;;;-145.00;81.39;73126.22;5068816;28;20051;-75
2023/08/05 09:00:53;;;;;;;93.70;16.80;;;;;;;-145.00;81.55;73126.22;5070007;28;20518;-75
2023/08/05 09:03:24;;;;;;;82.45;19.05;;;;;;;-145.00;81.95;73109.56;5059831;28;20057;-75
2023/08/05 09:05:56;;;;;;;93.60;17.73;;;;;;;-145.00;81.29;73101.25;5073746;28;20503;-75
2023/08/05 09:08:24;;;;;;;33.20;15.52;;;;;;;-145.00;79.57;73107.50;5065612;28;20049;-75
2023/08/05 09:10:50;;;;;;;24.83;15.75;;;;;;;-145.00;80.95;73099.16;5070714;28;20053;-74
2023/08/05 09:13:19;;;;;;;28.77;15.52;;;;;;;-145.00;81.52;73090.84;5065315;28;20407;-74
2023/08/05 09:15:47;;;;;;;77.97;17.08;;;;;;;-145.00;80.86;73088.75;5071381;28;20514;-75
2023/08/05 09:18:13;;;;;;;35.28;17.25;;;;;;;-145.00;80.59;73088.75;5071032;28;20494;-75
2023/08/05 09:20:40;;;;;;;61.17;17.75;;;;;;;-145.00;80.74;73088.75;5070871;28;20414;-75
2023/08/05 09:23:08;;;;;;;17.17;14.07;;;;;;;-145.00;81.35;73092.91;5064264;28;20045;-75
2023/08/05 09:25:40;;;;;;;21.65;17.10;;;;;;;-145.00;81.87;73097.09;5073487;28;20086;-74
2023/08/05 09:28:07;;;;;;;20.90;16.43;;;;;;;-145.00;81.79;73084.59;5063019;28;20048;-76
2023/08/05 09:30:35;;;;;;;22.63;16.35;;;;;;;-145.00;81.95;73086.69;5071553;28;20071;-75
2023/08/05 09:33:01;;;;;;;27.00;16.40;;;;;;;-145.00;81.52;73099.16;5066937;28;20612;-75
2023/08/05 09:35:29;;;;;;;23.80;16.35;;;;;;;-145.00;81.54;73107.50;5072968;28;20407;-74
2023/08/05 09:37:56;;;;;;;26.63;16.33;;;;;;;-145.00;82.03;73099.16;5073480;28;20063;-75
2023/08/05 09:40:25;;;;;;;32.22;17.55;;;;;;;-145.00;82.23;73109.56;5058515;28;20048;-75
2023/08/05 09:42:59;;;;;;;38.00;18.70;;;;;;;-145.00;82.41;73101.25;5065454;28;20051;-76
2023/08/05 09:45:28;;;;;;;21.67;15.05;;;;;;;-145.00;82.43;73092.91;5073254;28;20048;-77
2023/08/05 09:48:06;;;;;;;26.20;16.38;;;;;;;-145.00;82.71;73082.50;5073879;28;20539;-79
2023/08/05 09:50:37;;;;;;;26.02;16.88;;;;;;;-145.00;82.65;73076.25;5072640;28;20091;-77
2023/08/05 09:53:08;;;;;;;32.03;15.82;;;;;;;-145.00;82.37;73084.59;5072732;28;20049;-77
2023/08/05 09:55:35;;;;;;;24.98;16.25;;;;;;;-145.00;82.28;73088.75;5071406;28;20135;-76
2023/08/05 09:58:07;;;;;;;36.70;16.83;;;;;;;-145.00;82.56;73080.44;5072405;28;20056;-77
2023/08/05 10:00:34;;;;;;;46.97;17.15;;;;;;;-145.00;82.90;73065.84;5073828;28;20450;-77
2023/08/05 10:03:02;;;;;;;69.85;17.77;;;;;;;-145.00;83.10;73049.19;5073376;28;20052;-78
2023/08/05 10:05:29;;;;;;;37.78;26.73;;;;;;;-145.00;82.72;73047.13;5062767;28;20140;-79
2023/08/05 10:07:58;;;;;;;24.90;18.83;;;;;;;-145.00;82.51;73051.28;5052594;28;20056;-77
2023/08/05 10:10:25;;;;;;;26.88;19.27;;;;;;;-145.00;82.60;73055.44;5071944;28;20105;-78
2023/08/05 10:13:10;;;;;;;28.38;23.05;;;;;;;-145.00;82.95;73049.19;5069034;28;20594;-78
2023/08/05 10:15:41;;;;;;;38.03;19.20;;;;;;;-145.00;81.81;73047.13;5070234;28;20131;-79
2023/08/05 10:18:08;;;;;;;64.93;17.83;;;;;;;-145.00;81.61;73042.97;5059761;28;20056;-78
2023/08/05 10:20:36;;;;;;;22.08;16.38;;;;;;;-145.00;81.78;73038.78;5066862;28;20044;-79
2023/08/05 10:23:04;;;;;;;28.27;17.88;;;;;;;-145.00;82.06;73030.47;5070146;28;20143;-78
2023/08/05 10:25:49;;;;;;;69.63;26.75;;;;;;;-145.00;81.15;73028.38;5068978;28;20045;-78
2023/08/05 10:28:47;;;;;;;26.95;16.33;;;;;;;-145.00;80.96;73030.47;5063104;28;20132;-80
2023/08/05 10:31:25;;;;;;;42.40;17.45;;;;;;;-145.00;81.61;73042.97;5069860;28;20687;-79
2023/08/05 10:34:17;;;;;;;56.58;16.63;;;;;;;-145.00;82.65;73049.19;5070016;28;20052;-80
2023/08/05 10:36:48;;;;;;;32.50;16.98;;;;;;;-145.00;81.52;73047.13;5070926;28;20079;-80
2023/08/05 10:39:46;;;;;;;21.40;16.35;;;;;;;-145.00;81.87;73022.13;5063199;28;20045;-78
2023/08/05 10:42:36;;;;;;;28.58;18.35;;;;;;;-145.00;80.87;73001.31;5070681;28;20052;-78
2023/08/05 10:45:10;;;;;;;25.92;18.30;;;;;;;-145.00;81.52;72993.00;5055564;28;20062;-78
2023/08/05 10:47:49;;;;;;;49.83;17.60;;;;;;;-145.00;82.45;72984.66;5072594;28;20055;-79
2023/08/05 10:50:16;;;;;;;28.00;21.02;;;;;;;-145.00;84.00;72968.00;5067854;28;20075;-81
2023/08/05 10:52:43;;;;;;;40.85;31.98;;;;;;;-145.00;84.61;72947.19;5074743;28;20127;-80
2023/08/05 10:55:12;;;;;;;78.72;57.67;;;;;;;-145.00;84.88;72901.38;5073183;28;20134;-78
2023/08/05 10:57:48;;;;;;;62.05;37.00;;;;;;;-145.00;82.82;72832.69;5063962;28;20056;-76
2023/08/05 11:00:21;;;;;;;76.22;46.47;;;;;;;-145.00;81.65;72780.66;5062749;28;20096;-83
2023/08/05 11:03:08;;;;;;;252.02;165.68;;;;;;;-145.00;76.60;72761.91;5071036;28;20045;-82
2023/08/05 11:05:52;;;;;;;38.90;22.80;;;;;;;-145.00;75.32;72674.47;5086096;28;20092;-82
2023/08/05 11:08:21;;;;;;;52.50;38.95;;;;;;;-145.00;70.14;72655.75;5140701;22;20507;-80
2023/08/05 11:10:52;;;;;;;23.10;14.35;;;;;;;-145.00;69.43;72668.22;5076009;28;20044;-78
2023/08/05 11:13:19;;;;;;;38.42;25.02;;;;;;;-145.00;71.23;72668.22;5096967;22;20059;-78
2023/08/05 11:16:06;;;;;;;70.88;19.52;;;;;;;-145.00;71.45;72634.94;5108009;22;20049;-79
2023/08/05 11:21:02;;;;;;;53.30;25.55;;;;;;;-145.00;67.36;72659.91;5119130;22;20050;-76